Time;durP1;ratioP1;P1;durP2;ratioP2;P2;SDS_P1;SDS_P2;PMS_P1;PMS_P2;Temp;Humidity;BMP_temperature;BMP_pressure;BME280_temperature;BME280_humidity;BME280_pressure;Samples;Min_cycle;Max_cycle;Signal;HPM_P1;HPM_P2
2021/10/26 00:00:51;;;;;;;6.40;5.80;;;9.30;99.90;;;;;;4957215;28;20201;-51
2021/10/26 00:03:16;;;;;;;5.90;5.40;;;9.80;99.90;;;;;;4962236;28;20195;-52
2021/10/26 00:05:42;;;;;;;6.60;5.77;;;9.70;99.90;;;;;;4967256;28;20235;-51
2021/10/26 00:08:08;;;;;;;5.95;5.35;;;9.60;99.90;;;;;;4958187;28;20188;-51
2021/10/26 00:10:34;;;;;;;8.63;6.20;;;9.70;99.90;;;;;;4953933;28;20260;-51
2021/10/26 00:13:00;;;;;;;7.50;6.80;;;9.50;99.90;;;;;;4961456;28;20188;-51
2021/10/26 00:15:26;;;;;;;8.18;5.72;;;9.70;99.90;;;;;;4954398;28;20427;-51
2021/10/26 00:17:52;;;;;;;8.23;6.30;;;9.70;99.90;;;;;;4953048;28;20205;-51
2021/10/26 00:20:18;;;;;;;6.93;5.93;;;9.70;99.90;;;;;;4962141;28;20209;-51
2021/10/26 00:22:45;;;;;;;7.20;5.90;;;9.80;99.90;;;;;;4963109;28;20560;-51
2021/10/26 00:25:11;;;;;;;6.53;5.60;;;9.70;99.90;;;;;;4958987;28;20200;-51
2021/10/26 00:27:37;;;;;;;6.57;5.87;;;9.90;99.90;;;;;;4960036;28;20658;-51
2021/10/26 00:30:04;;;;;;;6.67;5.63;;;10.10;99.90;;;;;;4956259;28;20569;-51
2021/10/26 00:32:30;;;;;;;6.78;5.65;;;9.90;99.90;;;;;;4955967;28;20608;-51
2021/10/26 00:34:56;;;;;;;8.68;6.00;;;10.00;99.90;;;;;;4965085;28;20288;-51
2021/10/26 00:37:21;;;;;;;8.43;5.73;;;10.20;99.90;;;;;;4952976;28;20276;-51
2021/10/26 00:39:47;;;;;;;7.40;6.13;;;10.00;99.90;;;;;;4952353;28;20686;-51
2021/10/26 00:42:13;;;;;;;5.97;5.37;;;10.00;99.90;;;;;;4961742;28;20489;-52
2021/10/26 00:44:39;;;;;;;6.53;5.83;;;10.10;99.90;;;;;;4960544;28;20415;-51
2021/10/26 00:47:05;;;;;;;6.82;5.93;;;10.30;99.90;;;;;;4962236;28;20210;-51
2021/10/26 00:49:31;;;;;;;8.60;5.78;;;10.00;99.90;;;;;;4957892;28;20574;-51
2021/10/26 00:51:57;;;;;;;8.70;5.70;;;10.30;99.90;;;;;;4952665;28;20185;-51
2021/10/26 00:54:25;;;;;;;8.45;6.55;;;10.30;99.90;;;;;;4955517;28;20495;-51
2021/10/26 00:56:51;;;;;;;7.07;6.38;;;10.30;99.90;;;;;;4952686;28;20268;-51
2021/10/26 00:59:16;;;;;;;8.15;6.07;;;10.30;99.90;;;;;;4952731;28;20579;-51
2021/10/26 01:01:42;;;;;;;8.00;6.33;;;10.30;99.90;;;;;;4962384;28;20191;-51
2021/10/26 01:04:09;;;;;;;7.67;6.87;;;10.40;99.90;;;;;;4955174;28;21751;-51
2021/10/26 01:06:36;;;;;;;6.63;5.97;;;10.40;99.90;;;;;;4958021;28;20527;-51
2021/10/26 01:09:03;;;;;;;7.13;5.97;;;10.60;99.90;;;;;;4959386;28;20681;-51
2021/10/26 01:11:29;;;;;;;7.28;5.90;;;10.40;99.90;;;;;;4959800;28;20193;-51
2021/10/26 01:13:57;;;;;;;7.82;6.45;;;10.50;99.90;;;;;;4954293;28;20651;-51
2021/10/26 01:16:22;;;;;;;9.73;6.90;;;10.60;99.90;;;;;;4950180;28;20188;-51
2021/10/26 01:18:48;;;;;;;7.13;6.43;;;10.60;99.90;;;;;;4955099;28;20588;-51
2021/10/26 01:21:16;;;;;;;7.32;6.55;;;10.70;99.90;;;;;;4956945;28;20216;-51
2021/10/26 01:23:42;;;;;;;7.85;6.13;;;10.40;99.90;;;;;;4937063;28;20606;-51
2021/10/26 01:26:08;;;;;;;6.88;5.72;;;10.60;99.90;;;;;;4959940;28;20185;-51
2021/10/26 01:28:33;;;;;;;7.37;6.40;;;10.70;99.90;;;;;;4952082;28;20517;-51
2021/10/26 01:30:59;;;;;;;6.87;6.20;;;10.20;99.90;;;;;;4959721;28;20243;-51
2021/10/26 01:33:26;;;;;;;7.07;6.20;;;11.00;99.90;;;;;;4954570;28;20573;-51
2021/10/26 01:35:52;;;;;;;8.40;6.70;;;11.00;99.90;;;;;;4960328;28;20208;-51
2021/10/26 01:38:18;;;;;;;8.98;7.20;;;10.80;99.90;;;;;;4954549;28;20646;-51
2021/10/26 01:40:43;;;;;;;6.20;5.60;;;10.80;99.90;;;;;;4951788;28;20300;-51
2021/10/26 01:43:09;;;;;;;8.23;6.10;;;10.80;99.90;;;;;;4952346;28;20212;-51
2021/10/26 01:45:34;;;;;;;6.93;6.23;;;10.80;99.90;;;;;;4956560;28;20651;-51
2021/10/26 01:48:00;;;;;;;7.27;6.53;;;10.90;99.90;;;;;;4962498;28;20247;-51
2021/10/26 01:50:26;;;;;;;8.33;6.40;;;11.10;99.90;;;;;;4953309;28;20213;-51
2021/10/26 01:52:51;;;;;;;7.63;6.40;;;11.00;99.90;;;;;;4951747;28;20178;-51
2021/10/26 01:55:18;;;;;;;6.90;6.20;;;10.70;99.90;;;;;;4951772;28;20188;-51
2021/10/26 01:57:45;;;;;;;7.88;7.18;;;10.90;99.90;;;;;;4957667;28;20362;-51
2021/10/26 02:00:14;;;;;;;9.05;6.32;;;10.90;99.90;;;;;;4958803;28;20694;-51
2021/10/26 02:02:40;;;;;;;7.18;6.00;;;11.20;99.90;;;;;;4959891;28;20190;-51
2021/10/26 02:05:07;;;;;;;7.60;6.72;;;11.00;99.90;;;;;;4967910;28;20658;-51
2021/10/26 02:07:33;;;;;;;7.45;6.85;;;11.00;99.90;;;;;;4962027;28;20277;-52
2021/10/26 02:09:58;;;;;;;6.38;5.78;;;11.00;99.90;;;;;;4960180;28;20916;-51
2021/10/26 02:12:24;;;;;;;7.80;6.73;;;10.60;99.90;;;;;;4957460;28;20224;-50
2021/10/26 02:14:50;;;;;;;8.20;7.00;;;10.90;99.90;;;;;;4955779;28;20190;-50
2021/10/26 02:17:16;;;;;;;8.63;7.82;;;10.10;99.90;;;;;;4959653;28;20190;-50
2021/10/26 02:19:41;;;;;;;8.37;7.50;;;10.60;99.90;;;;;;4961790;28;20359;-51
2021/10/26 02:22:07;;;;;;;8.83;6.90;;;10.60;99.90;;;;;;4959943;28;20686;-51
2021/10/26 02:24:33;;;;;;;7.97;7.00;;;10.60;99.90;;;;;;4966972;28;20484;-51
2021/10/26 02:27:00;;;;;;;8.10;7.30;;;10.70;99.90;;;;;;4960638;28;20587;-50
2021/10/26 02:29:26;;;;;;;8.68;7.35;;;10.90;99.90;;;;;;4959075;28;20209;-50
2021/10/26 02:31:53;;;;;;;9.60;8.70;;;10.70;99.90;;;;;;4969982;28;20185;-50
2021/10/26 02:34:18;;;;;;;10.93;8.00;;;10.90;99.90;;;;;;4966496;28;20186;-51
2021/10/26 02:36:45;;;;;;;13.10;8.37;;;10.50;99.90;;;;;;4962353;28;20189;-51
2021/10/26 02:39:11;;;;;;;11.35;8.52;;;10.50;99.90;;;;;;4966641;28;20221;-50
2021/10/26 02:41:37;;;;;;;8.77;7.97;;;10.60;99.90;;;;;;4960917;28;20200;-51
2021/10/26 02:44:03;;;;;;;9.67;8.67;;;10.70;99.90;;;;;;4961956;28;20547;-51
2021/10/26 02:46:28;;;;;;;8.70;7.80;;;10.80;99.90;;;;;;4968499;28;20497;-51
2021/10/26 02:48:54;;;;;;;9.07;7.77;;;10.50;99.90;;;;;;4968623;28;20293;-50
2021/10/26 02:51:19;;;;;;;8.40;7.30;;;10.60;99.90;;;;;;4964226;28;20248;-51
2021/10/26 02:53:45;;;;;;;8.50;7.70;;;10.80;99.90;;;;;;4966227;28;20194;-51
2021/10/26 02:56:11;;;;;;;9.83;7.80;;;10.90;99.90;;;;;;4964209;28;20189;-51
2021/10/26 02:58:36;;;;;;;8.13;7.33;;;10.90;99.90;;;;;;4961909;28;20287;-51
2021/10/26 03:01:02;;;;;;;9.40;8.03;;;10.70;99.90;;;;;;4966159;28;20206;-51
2021/10/26 03:03:28;;;;;;;8.90;7.97;;;10.70;99.90;;;;;;4965241;28;20199;-51
2021/10/26 03:05:54;;;;;;;9.23;8.20;;;10.80;99.90;;;;;;4967889;28;20192;-50
2021/10/26 03:08:20;;;;;;;9.57;7.97;;;10.90;99.90;;;;;;4964808;28;20592;-50
2021/10/26 03:10:46;;;;;;;9.90;7.43;;;10.80;99.90;;;;;;4969609;28;20459;-50
2021/10/26 03:13:11;;;;;;;9.15;8.15;;;10.60;99.90;;;;;;4963205;28;20196;-51
2021/10/26 03:15:37;;;;;;;10.70;8.20;;;10.40;99.90;;;;;;4959902;28;20193;-50
2021/10/26 03:18:02;;;;;;;9.20;8.33;;;10.60;99.90;;;;;;4964562;28;20201;-51
2021/10/26 03:20:28;;;;;;;10.23;9.13;;;10.60;99.90;;;;;;4949348;28;20364;-50
2021/10/26 03:22:54;;;;;;;12.03;8.50;;;10.60;99.90;;;;;;4969627;28;20196;-51
2021/10/26 03:25:21;;;;;;;10.40;8.57;;;10.90;99.90;;;;;;4960659;28;20443;-51
2021/10/26 03:27:48;;;;;;;9.57;8.10;;;10.60;99.90;;;;;;4964924;28;20192;-51
2021/10/26 03:30:14;;;;;;;9.65;8.13;;;10.30;99.90;;;;;;4966489;28;20209;-51
2021/10/26 03:32:40;;;;;;;9.97;8.60;;;10.60;99.90;;;;;;4961732;28;20187;-50
2021/10/26 03:35:06;;;;;;;11.77;8.68;;;10.70;99.90;;;;;;4964553;28;20430;-50
2021/10/26 03:37:32;;;;;;;9.37;8.47;;;10.30;99.90;;;;;;4963384;28;20279;-51
2021/10/26 03:39:57;;;;;;;9.00;8.10;;;10.50;99.90;;;;;;4962584;28;21063;-50
2021/10/26 03:42:23;;;;;;;10.93;9.40;;;10.50;99.90;;;;;;4966391;28;20498;-51
2021/10/26 03:44:50;;;;;;;13.45;9.85;;;10.50;99.90;;;;;;4964050;28;20185;-51
2021/10/26 03:47:16;;;;;;;9.60;8.70;;;10.40;99.90;;;;;;4965084;28;20595;-51
2021/10/26 03:49:41;;;;;;;10.30;8.80;;;10.80;99.90;;;;;;4960795;28;20213;-51
2021/10/26 03:52:07;;;;;;;10.03;8.80;;;10.70;99.90;;;;;;4942874;28;20910;-50
2021/10/26 03:54:33;;;;;;;11.77;9.90;;;10.80;99.90;;;;;;4967781;28;20193;-51
2021/10/26 03:56:59;;;;;;;10.93;9.02;;;10.80;99.90;;;;;;4964764;28;20192;-51
2021/10/26 03:59:30;;;;;;;10.33;8.80;;;10.60;99.90;;;;;;4971992;28;20247;-51
2021/10/26 04:02:03;;;;;;;9.63;8.68;;;10.80;99.90;;;;;;4971660;28;20180;-50
2021/10/26 04:04:29;;;;;;;10.27;9.27;;;10.60;99.90;;;;;;4962467;28;20189;-51
2021/10/26 04:06:55;;;;;;;10.33;9.20;;;10.50;99.90;;;;;;4968235;28;20282;-51
2021/10/26 04:09:31;;;;;;;11.20;9.70;;;10.50;99.90;;;;;;4963541;28;20212;-51
2021/10/26 04:12:18;;;;;;;12.55;9.45;;;10.30;99.90;;;;;;4955368;28;20592;-51
2021/10/26 04:14:43;;;;;;;11.43;10.20;;;10.70;99.90;;;;;;4962850;28;20192;-51
2021/10/26 04:17:09;;;;;;;9.95;8.90;;;10.30;99.90;;;;;;4958047;28;20189;-51
2021/10/26 04:19:35;;;;;;;12.13;9.50;;;10.50;99.90;;;;;;4962893;28;20214;-51
2021/10/26 04:22:00;;;;;;;10.70;9.03;;;10.50;99.90;;;;;;4957650;28;20660;-51
2021/10/26 04:24:26;;;;;;;11.70;9.50;;;10.10;99.90;;;;;;4964366;28;20236;-51
2021/10/26 04:26:51;;;;;;;10.43;9.40;;;10.30;99.90;;;;;;4960565;28;20244;-51
2021/10/26 04:29:17;;;;;;;13.80;9.73;;;10.50;99.90;;;;;;4962345;28;20619;-51
2021/10/26 04:31:42;;;;;;;11.83;9.80;;;10.60;99.90;;;;;;4962886;28;20277;-51
2021/10/26 04:34:08;;;;;;;13.47;11.53;;;10.50;99.90;;;;;;4967147;28;20730;-51
2021/10/26 04:36:34;;;;;;;10.97;9.83;;;10.70;99.90;;;;;;4960219;28;20208;-51
2021/10/26 04:38:59;;;;;;;12.10;10.90;;;10.30;99.90;;;;;;4962553;28;20229;-51
2021/10/26 04:41:25;;;;;;;11.30;10.10;;;10.40;99.90;;;;;;4966466;28;20217;-51
2021/10/26 04:43:52;;;;;;;11.30;9.90;;;10.20;99.90;;;;;;4960849;28;20236;-51
2021/10/26 04:46:17;;;;;;;12.05;10.05;;;10.10;99.90;;;;;;4961855;28;20219;-51
2021/10/26 04:48:44;;;;;;;12.57;11.27;;;10.30;99.90;;;;;;4961102;28;20483;-52
2021/10/26 04:51:09;;;;;;;11.30;10.05;;;10.10;99.90;;;;;;4958996;28;20196;-52
2021/10/26 04:53:35;;;;;;;16.20;13.10;;;10.10;99.90;;;;;;4957218;28;20185;-52
2021/10/26 04:56:01;;;;;;;13.53;11.60;;;10.10;99.90;;;;;;4952410;28;20205;-52
2021/10/26 04:58:26;;;;;;;11.93;10.70;;;10.10;99.90;;;;;;4955681;28;20193;-51
2021/10/26 05:00:52;;;;;;;11.90;10.60;;;10.20;99.90;;;;;;4952553;28;20224;-52
2021/10/26 05:03:18;;;;;;;10.30;9.30;;;10.20;99.90;;;;;;4956166;28;20217;-51
2021/10/26 05:05:44;;;;;;;11.33;9.77;;;10.50;99.90;;;;;;4961582;28;20654;-52
2021/10/26 05:08:09;;;;;;;10.63;9.53;;;9.90;99.90;;;;;;4952281;28;20443;-52
2021/10/26 05:10:35;;;;;;;13.10;9.37;;;10.10;99.90;;;;;;4954684;28;20682;-51
2021/10/26 05:13:01;;;;;;;11.53;9.87;;;10.50;99.90;;;;;;4966997;28;20329;-51
2021/10/26 05:15:26;;;;;;;10.63;9.53;;;10.10;99.90;;;;;;4957592;28;20200;-51
2021/10/26 05:17:52;;;;;;;14.43;10.40;;;10.30;99.90;;;;;;4952856;28;20201;-51
2021/10/26 05:20:21;;;;;;;11.82;10.63;;;10.20;99.90;;;;;;4949536;28;20204;-51
2021/10/26 05:22:49;;;;;;;14.70;10.98;;;10.30;99.90;;;;;;4956780;28;20619;-51
2021/10/26 05:25:15;;;;;;;11.18;9.90;;;10.30;99.90;;;;;;4956743;28;20173;-51
2021/10/26 05:27:42;;;;;;;10.67;9.57;;;10.20;99.90;;;;;;4958764;28;20184;-50
2021/10/26 05:30:08;;;;;;;15.65;12.43;;;10.30;99.90;;;;;;4959869;28;20213;-54
2021/10/26 05:32:34;;;;;;;11.75;10.55;;;10.30;99.90;;;;;;4965001;28;20196;-54
2021/10/26 05:34:59;;;;;;;11.67;10.47;;;10.10;99.90;;;;;;4961116;28;20193;-55
2021/10/26 05:37:25;;;;;;;13.07;11.07;;;10.20;99.90;;;;;;4956531;28;20419;-54
2021/10/26 05:39:51;;;;;;;12.90;11.60;;;10.10;99.90;;;;;;4959939;28;20551;-54
2021/10/26 05:42:16;;;;;;;13.17;10.67;;;10.10;99.90;;;;;;4958317;28;20197;-54
2021/10/26 05:44:42;;;;;;;15.10;12.60;;;10.10;99.90;;;;;;4958704;28;20181;-54
2021/10/26 05:47:07;;;;;;;14.67;13.07;;;10.10;99.90;;;;;;4964299;28;20231;-53
2021/10/26 05:49:33;;;;;;;11.80;10.70;;;10.30;99.90;;;;;;4967464;28;20232;-52
2021/10/26 05:51:59;;;;;;;14.13;11.10;;;10.20;99.90;;;;;;4953575;28;20200;-53
2021/10/26 05:54:25;;;;;;;11.43;10.32;;;10.50;99.90;;;;;;4956781;28;20196;-54
2021/10/26 05:56:51;;;;;;;11.97;10.70;;;10.30;99.90;;;;;;4962145;28;20589;-53
2021/10/26 05:59:16;;;;;;;15.03;10.60;;;10.50;99.90;;;;;;4951625;28;20212;-53
2021/10/26 06:01:42;;;;;;;12.27;10.63;;;10.40;99.90;;;;;;4959153;28;20436;-53
2021/10/26 06:04:07;;;;;;;11.33;9.83;;;10.30;99.90;;;;;;4958323;28;20643;-52
2021/10/26 06:06:33;;;;;;;14.17;11.70;;;10.50;99.90;;;;;;4953982;28;20181;-52
2021/10/26 06:08:59;;;;;;;13.37;10.23;;;10.60;99.90;;;;;;4961838;28;20209;-53
2021/10/26 06:11:25;;;;;;;11.43;10.00;;;10.20;99.90;;;;;;4964893;28;20200;-52
2021/10/26 06:14:01;;;;;;;12.25;10.93;;;10.70;99.90;;;;;;4958704;28;20676;-52
2021/10/26 06:16:27;;;;;;;11.13;9.95;;;10.80;99.90;;;;;;4958905;28;20242;-54
2021/10/26 06:18:53;;;;;;;11.15;8.93;;;10.90;99.90;;;;;;4960271;28;20247;-52
2021/10/26 06:21:19;;;;;;;11.00;9.80;;;10.90;99.90;;;;;;4958579;28;20213;-50
2021/10/26 06:23:45;;;;;;;11.15;9.70;;;11.00;99.90;;;;;;4961732;28;20185;-52
2021/10/26 06:26:11;;;;;;;13.43;10.70;;;10.80;99.90;;;;;;4960768;28;20525;-51
2021/10/26 06:28:37;;;;;;;16.10;11.20;;;10.70;99.90;;;;;;4958636;28;20441;-54
2021/10/26 06:31:03;;;;;;;16.03;11.57;;;10.70;99.90;;;;;;4960849;28;20220;-54
2021/10/26 06:33:29;;;;;;;14.93;11.88;;;10.70;99.90;;;;;;4959930;28;20674;-54
2021/10/26 06:35:55;;;;;;;12.95;11.55;;;10.70;99.90;;;;;;4948847;28;20650;-54
2021/10/26 06:38:21;;;;;;;12.33;10.23;;;10.70;99.90;;;;;;4966010;28;20196;-52
2021/10/26 06:40:47;;;;;;;16.83;11.88;;;10.30;99.90;;;;;;4956615;28;21000;-52
2021/10/26 06:43:13;;;;;;;13.77;10.63;;;10.60;99.90;;;;;;4967571;28;20185;-52
2021/10/26 06:45:39;;;;;;;12.65;9.95;;;10.60;99.90;;;;;;4965032;28;20228;-52
2021/10/26 06:48:05;;;;;;;12.80;10.50;;;11.20;99.90;;;;;;4974105;28;20716;-52
2021/10/26 06:50:30;;;;;;;11.52;10.32;;;11.40;99.90;;;;;;4965605;28;20233;-52
2021/10/26 06:52:56;;;;;;;11.60;10.50;;;11.10;99.90;;;;;;4963098;28;20225;-50
2021/10/26 06:55:22;;;;;;;11.37;9.33;;;11.40;99.90;;;;;;4953673;29;20992;-51
2021/10/26 06:57:49;;;;;;;11.68;10.43;;;11.20;99.90;;;;;;4958532;28;20190;-52
2021/10/26 07:00:17;;;;;;;10.43;9.23;;;11.20;99.90;;;;;;4956872;28;20723;-52
2021/10/26 07:02:51;;;;;;;10.57;9.57;;;11.40;99.90;;;;;;4963557;28;20181;-52
2021/10/26 07:05:21;;;;;;;10.88;9.68;;;11.30;99.90;;;;;;4958297;28;20183;-52
2021/10/26 07:07:47;;;;;;;10.80;9.57;;;11.50;99.90;;;;;;4961154;28;20211;-52
2021/10/26 07:10:13;;;;;;;11.00;9.90;;;11.50;99.90;;;;;;4956864;28;20203;-51
2021/10/26 07:12:40;;;;;;;13.50;11.17;;;11.40;99.90;;;;;;4946995;28;20992;-51
2021/10/26 07:15:08;;;;;;;13.93;11.75;;;11.50;99.90;;;;;;4959660;28;20441;-51
2021/10/26 07:17:35;;;;;;;12.23;10.95;;;11.20;99.90;;;;;;4958742;28;20216;-51
2021/10/26 07:20:04;;;;;;;11.32;10.23;;;11.30;99.90;;;;;;4966355;28;20217;-53
2021/10/26 07:22:30;;;;;;;13.65;12.25;;;11.40;99.90;;;;;;4959758;28;20185;-53
2021/10/26 07:24:57;;;;;;;11.90;10.37;;;11.50;99.90;;;;;;4960783;28;20181;-52
2021/10/26 07:27:24;;;;;;;12.18;10.98;;;11.80;99.90;;;;;;4968902;28;20639;-52
2021/10/26 07:29:50;;;;;;;11.38;10.25;;;11.40;99.90;;;;;;4966855;28;20209;-49
2021/10/26 07:32:16;;;;;;;13.73;10.85;;;11.80;99.90;;;;;;4967273;28;20191;-50
2021/10/26 07:34:41;;;;;;;11.80;10.00;;;11.60;99.90;;;;;;4978704;28;20189;-51
2021/10/26 07:37:07;;;;;;;11.07;8.70;;;11.90;99.90;;;;;;4968559;28;20453;-51
2021/10/26 07:39:35;;;;;;;16.60;11.37;;;11.90;99.90;;;;;;4974369;28;20220;-51
2021/10/26 07:42:02;;;;;;;12.98;10.15;;;11.80;99.90;;;;;;4967836;28;20186;-50
2021/10/26 07:44:33;;;;;;;9.73;8.73;;;11.90;99.90;;;;;;4966233;28;20177;-52
2021/10/26 07:47:00;;;;;;;12.07;10.10;;;12.10;99.90;;;;;;4963814;28;20182;-51
2021/10/26 07:49:29;;;;;;;12.00;9.85;;;11.90;99.90;;;;;;4962149;28;20205;-51
2021/10/26 07:51:55;;;;;;;12.02;10.80;;;11.90;99.90;;;;;;4963697;28;21196;-50
2021/10/26 07:54:21;;;;;;;14.13;10.68;;;11.90;99.90;;;;;;4957148;28;20558;-52
2021/10/26 07:56:47;;;;;;;11.80;10.13;;;12.10;99.90;;;;;;4963246;28;20173;-50
2021/10/26 07:59:13;;;;;;;10.93;9.83;;;12.20;99.90;;;;;;4954560;28;20205;-50
2021/10/26 08:01:40;;;;;;;10.38;9.27;;;12.30;99.90;;;;;;4961783;28;20227;-50
2021/10/26 08:04:06;;;;;;;10.30;9.30;;;12.70;99.90;;;;;;4959024;28;20199;-50
2021/10/26 08:06:32;;;;;;;10.93;9.48;;;12.80;99.90;;;;;;4958662;28;20223;-50
2021/10/26 08:08:58;;;;;;;11.03;9.90;;;13.10;99.90;;;;;;4956424;28;20697;-50
2021/10/26 08:11:25;;;;;;;11.57;9.35;;;13.20;99.90;;;;;;4966838;28;20499;-50
2021/10/26 08:13:51;;;;;;;11.70;9.68;;;13.20;99.90;;;;;;4964084;28;20192;-50
2021/10/26 08:16:17;;;;;;;10.38;9.38;;;13.20;99.90;;;;;;4962922;28;20676;-50
2021/10/26 08:18:43;;;;;;;12.10;10.20;;;13.30;99.90;;;;;;4958059;28;20208;-50
2021/10/26 08:21:12;;;;;;;13.77;12.40;;;12.80;99.90;;;;;;4965859;28;20228;-50
2021/10/26 08:23:39;;;;;;;13.10;10.02;;;13.80;99.90;;;;;;4942464;28;20513;-49
2021/10/26 08:26:07;;;;;;;15.23;12.55;;;13.50;99.90;;;;;;4958981;28;20556;-50
2021/10/26 08:28:34;;;;;;;11.77;10.57;;;13.50;99.90;;;;;;4961534;28;20180;-50
2021/10/26 08:31:05;;;;;;;11.82;10.13;;;13.60;99.90;;;;;;4958620;28;20195;-51
2021/10/26 08:35:56;;;;;;;11.17;10.00;;;14.10;99.90;;;;;;4963617;28;20195;-49
2021/10/26 08:38:22;;;;;;;11.70;10.40;;;13.90;99.90;;;;;;4965250;28;20189;-49
2021/10/26 08:40:49;;;;;;;14.10;11.07;;;14.10;99.90;;;;;;4967078;28;20227;-50
2021/10/26 08:43:24;;;;;;;13.38;10.85;;;14.10;99.90;;;;;;4962466;28;20271;-49
2021/10/26 08:45:54;;;;;;;11.95;10.15;;;14.40;99.90;;;;;;4960155;28;20570;-49
2021/10/26 08:48:22;;;;;;;10.80;9.80;;;14.40;99.90;;;;;;4968924;28;20193;-50
2021/10/26 08:51:00;;;;;;;14.38;9.95;;;14.80;99.90;;;;;;4958098;28;20217;-51
2021/10/26 08:53:29;;;;;;;10.25;9.25;;;14.80;99.90;;;;;;4968378;28;20370;-51
2021/10/26 08:55:57;;;;;;;13.68;9.85;;;14.80;99.90;;;;;;4946165;28;20196;-50
2021/10/26 08:58:31;;;;;;;12.75;8.05;;;14.70;99.90;;;;;;4960436;28;20657;-50
2021/10/26 09:00:58;;;;;;;9.38;8.15;;;15.00;99.90;;;;;;4960506;28;20367;-50
2021/10/26 09:03:29;;;;;;;13.32;9.50;;;15.00;99.90;;;;;;4946317;28;20627;-51
2021/10/26 09:05:55;;;;;;;9.50;8.40;;;14.70;99.90;;;;;;4955196;28;20228;-51
2021/10/26 09:08:23;;;;;;;9.80;8.27;;;14.70;99.90;;;;;;4963775;28;20599;-51
2021/10/26 09:10:50;;;;;;;10.32;7.93;;;15.10;99.90;;;;;;4954972;28;20550;-51
2021/10/26 09:19:10;;;;;;;6.97;6.32;;;15.80;99.90;;;;;;4953127;28;20673;-49
2021/10/26 09:21:36;;;;;;;6.78;6.18;;;16.00;99.90;;;;;;4957175;28;20217;-50
2021/10/26 09:24:10;;;;;;;7.33;6.47;;;16.80;99.90;;;;;;4951965;28;20192;-49
2021/10/26 09:26:52;;;;;;;8.52;7.10;;;16.40;99.90;;;;;;4959236;28;20181;-49
2021/10/26 09:29:31;;;;;;;6.57;5.78;;;16.70;99.90;;;;;;4958260;28;20219;-50
2021/10/26 09:32:13;;;;;;;8.48;6.85;;;16.80;99.90;;;;;;4957541;28;20192;-50
2021/10/26 09:34:47;;;;;;;7.43;6.00;;;16.90;99.90;;;;;;4958681;28;20187;-52
2021/10/26 09:37:15;;;;;;;6.50;5.90;;;16.80;99.90;;;;;;4958996;28;20183;-52
2021/10/26 09:39:50;;;;;;;4.80;4.40;;;16.60;99.90;;;;;;4959100;28;20219;-52
2021/10/26 09:42:16;;;;;;;6.18;5.57;;;16.90;99.90;;;;;;4962565;28;20187;-51
2021/10/26 09:44:55;;;;;;;7.07;5.23;;;17.00;99.90;;;;;;4955296;28;20185;-52
2021/10/26 09:47:26;;;;;;;5.25;4.82;;;16.90;99.90;;;;;;4956725;28;20442;-51
2021/10/26 09:49:59;;;;;;;5.28;4.70;;;17.00;99.90;;;;;;4965338;28;20208;-52
2021/10/26 09:52:30;;;;;;;6.05;4.30;;;17.10;99.90;;;;;;4955294;28;20176;-53
2021/10/26 09:57:47;;;;;;;4.82;4.25;;;16.50;99.90;;;;;;4962415;28;20199;-50
2021/10/26 10:00:17;;;;;;;5.25;4.43;;;16.60;99.90;;;;;;4955546;28;20325;-50
2021/10/26 10:02:43;;;;;;;5.63;4.85;;;16.50;99.90;;;;;;4955913;28;20204;-50
2021/10/26 10:05:24;;;;;;;5.35;3.97;;;16.70;99.90;;;;;;4956819;28;20177;-52
2021/10/26 10:07:50;;;;;;;5.80;3.20;;;16.50;99.90;;;;;;4960878;28;20180;-53
2021/10/26 10:10:16;;;;;;;5.57;3.60;;;16.40;99.90;;;;;;4961975;28;20227;-53
2021/10/26 10:12:44;;;;;;;3.43;3.13;;;16.70;99.90;;;;;;4960336;28;20441;-52
2021/10/26 10:15:11;;;;;;;3.65;3.10;;;16.90;99.90;;;;;;4953182;28;20187;-51
2021/10/26 10:17:37;;;;;;;6.30;3.35;;;17.10;99.60;;;;;;4960593;28;20204;-52
2021/10/26 10:20:08;;;;;;;3.65;3.35;;;17.40;99.40;;;;;;4952166;28;20216;-51
2021/10/26 10:22:35;;;;;;;3.58;3.28;;;17.50;98.50;;;;;;4953860;28;20287;-50
2021/10/26 10:25:05;;;;;;;4.68;2.92;;;17.00;98.80;;;;;;4960416;28;20641;-50
2021/10/26 10:27:32;;;;;;;4.35;3.65;;;17.40;99.10;;;;;;4972312;28;20181;-50
2021/10/26 10:29:59;;;;;;;3.03;2.75;;;17.50;98.80;;;;;;4956432;28;20765;-50
2021/10/26 10:32:29;;;;;;;3.88;3.17;;;17.80;97.80;;;;;;4969308;28;20707;-49
2021/10/26 10:34:56;;;;;;;3.30;3.00;;;18.30;97.50;;;;;;4964486;28;20271;-49
2021/10/26 10:37:28;;;;;;;5.43;4.78;;;18.70;96.70;;;;;;4966507;28;20188;-50
2021/10/26 10:39:59;;;;;;;3.78;2.70;;;18.20;96.10;;;;;;4961194;28;20292;-50
2021/10/26 10:42:26;;;;;;;5.35;2.72;;;18.50;95.90;;;;;;4961567;28;20591;-50
2021/10/26 10:45:00;;;;;;;5.68;3.67;;;18.10;95.50;;;;;;4960968;28;20193;-52
2021/10/26 10:47:31;;;;;;;3.38;3.08;;;18.00;95.70;;;;;;4956627;28;20184;-52
2021/10/26 10:49:58;;;;;;;3.78;2.70;;;17.60;96.50;;;;;;4965851;28;20265;-52
2021/10/26 10:52:30;;;;;;;5.18;3.35;;;17.60;96.50;;;;;;4942725;28;20506;-53
2021/10/26 10:54:57;;;;;;;3.63;3.33;;;17.70;97.10;;;;;;4962921;28;20185;-53
2021/10/26 10:57:36;;;;;;;9.38;5.35;;;17.60;97.00;;;;;;4967102;28;20180;-53
2021/10/26 11:00:16;;;;;;;3.42;2.92;;;17.60;96.80;;;;;;4963063;28;20215;-52
2021/10/26 11:02:47;;;;;;;3.42;3.13;;;17.50;97.10;;;;;;4966469;28;20227;-53
2021/10/26 11:05:43;;;;;;;3.40;3.10;;;17.70;97.40;;;;;;4968799;28;20177;-54
2021/10/26 11:08:13;;;;;;;2.72;2.42;;;18.00;97.40;;;;;;4961608;28;20198;-53
2021/10/26 11:10:52;;;;;;;4.07;2.95;;;17.90;97.00;;;;;;4969049;28;20203;-53
2021/10/26 11:13:20;;;;;;;5.53;3.65;;;17.50;96.80;;;;;;4964499;28;20713;-53
2021/10/26 11:15:49;;;;;;;3.80;2.97;;;17.50;97.50;;;;;;4960613;28;20272;-54
2021/10/26 11:18:32;;;;;;;3.55;2.80;;;17.60;97.30;;;;;;4959695;28;20223;-54
2021/10/26 11:21:00;;;;;;;4.00;3.20;;;17.80;97.60;;;;;;4962335;28;20251;-53
2021/10/26 11:23:33;;;;;;;3.55;3.25;;;17.70;96.80;;;;;;4958548;28;20635;-54
2021/10/26 11:26:01;;;;;;;3.42;3.10;;;17.70;96.80;;;;;;4961555;28;20321;-53
2021/10/26 11:28:28;;;;;;;6.53;4.10;;;17.70;96.90;;;;;;4959507;28;20601;-54
2021/10/26 11:30:56;;;;;;;3.90;3.20;;;18.00;96.70;;;;;;4968186;28;20250;-54
2021/10/26 11:33:24;;;;;;;2.95;2.70;;;18.00;97.20;;;;;;4965959;28;20708;-54
2021/10/26 11:36:04;;;;;;;3.65;2.58;;;18.00;96.40;;;;;;4958263;28;20193;-53
2021/10/26 11:38:43;;;;;;;6.65;4.15;;;17.80;96.50;;;;;;4969664;28;20188;-52
2021/10/26 11:41:14;;;;;;;3.00;2.70;;;17.90;96.50;;;;;;4964391;28;20208;-50
2021/10/26 11:43:57;;;;;;;4.63;2.80;;;17.90;96.60;;;;;;4968241;28;20915;-50
2021/10/26 11:46:33;;;;;;;3.88;3.40;;;17.80;97.00;;;;;;4962185;28;20184;-50
2021/10/26 11:49:08;;;;;;;4.00;2.88;;;17.90;97.10;;;;;;4965375;28;20218;-50
2021/10/26 11:51:39;;;;;;;3.00;2.70;;;17.80;97.00;;;;;;4959688;28;20350;-50
2021/10/26 11:54:07;;;;;;;3.47;3.17;;;17.60;97.30;;;;;;4961969;28;20200;-50
2021/10/26 11:56:32;;;;;;;3.60;2.83;;;17.70;96.90;;;;;;4963603;28;20199;-53
2021/10/26 11:59:00;;;;;;;6.53;3.10;;;17.70;97.10;;;;;;4955977;28;20282;-51
2021/10/26 12:01:40;;;;;;;6.32;2.90;;;17.60;97.40;;;;;;4958090;28;20212;-52
2021/10/26 12:04:39;;;;;;;3.55;2.92;;;17.40;97.20;;;;;;4965580;28;20189;-51
2021/10/26 12:07:11;;;;;;;5.15;3.47;;;17.30;97.50;;;;;;4913402;28;20673;-51
2021/10/26 12:09:40;;;;;;;4.32;3.17;;;17.30;98.00;;;;;;4968769;28;20212;-51
2021/10/26 12:12:09;;;;;;;4.55;4.15;;;17.40;98.50;;;;;;4963919;28;20317;-51
2021/10/26 12:14:36;;;;;;;5.25;3.47;;;17.00;98.30;;;;;;4964700;28;20243;-51
2021/10/26 12:17:17;;;;;;;3.50;3.20;;;17.10;98.50;;;;;;4954686;28;20177;-51
2021/10/26 12:19:50;;;;;;;3.90;3.33;;;16.90;98.60;;;;;;4962829;28;20204;-52
2021/10/26 12:22:17;;;;;;;4.57;3.50;;;16.90;98.90;;;;;;4956037;28;20184;-51
2021/10/26 12:24:55;;;;;;;5.10;4.22;;;16.90;99.10;;;;;;4967346;28;20207;-53
2021/10/26 12:27:35;;;;;;;3.53;3.15;;;17.00;99.00;;;;;;4956173;28;20298;-52
2021/10/26 12:30:16;;;;;;;2.92;2.70;;;17.10;98.70;;;;;;4965631;28;20204;-53
2021/10/26 12:33:14;;;;;;;3.15;2.95;;;17.20;98.60;;;;;;4964663;28;20184;-51
2021/10/26 12:35:49;;;;;;;4.22;3.47;;;17.40;98.40;;;;;;4935265;28;20667;-52
2021/10/26 12:38:36;;;;;;;3.08;2.78;;;17.30;98.30;;;;;;4961683;28;20295;-50
2021/10/26 12:41:14;;;;;;;3.08;2.88;;;17.10;98.70;;;;;;4962321;28;20751;-49
2021/10/26 12:43:49;;;;;;;3.08;2.70;;;17.40;98.50;;;;;;4961008;28;20185;-48
2021/10/26 12:46:26;;;;;;;4.18;3.78;;;17.10;98.10;;;;;;4962564;28;20231;-49
2021/10/26 12:49:02;;;;;;;8.73;5.65;;;17.00;98.30;;;;;;4966241;28;20275;-50
2021/10/26 12:51:29;;;;;;;4.05;3.42;;;17.20;98.60;;;;;;4957310;28;20200;-51
2021/10/26 12:53:55;;;;;;;5.47;3.47;;;17.20;99.00;;;;;;4962287;28;20193;-53
2021/10/26 12:56:26;;;;;;;6.30;4.03;;;17.10;99.30;;;;;;4958978;28;20200;-50